LGKO/KGS METAR and TAF weather

Enter ICAO airport designator
Station Type Date Time Source
LGKO METAR 2022/05/24 11:50 UTC NOAA

LGKO 241150Z 30009KT CAVOK 27/15 Q1012


Station Type Date Time Source
LGKO Decoded METAR 2022/05/24 11:50 UTC NOAA

Kos Airport , Greece (LGKO) 36-47N 027-04E
May 24, 2022 - 07:50 AM EDT / 2022.05.24 1150 UTC
Wind: from the WNW (300 degrees) at 10 MPH (9 KT):0
Visibility: greater than 7 mile(s):0
Temperature: 80 F (27 C)
Dew Point: 59 F (15 C)
Relative Humidity: 47%
Pressure (altimeter): 29.88 in. Hg (1012 hPa)
ob: LGKO 241150Z 30009KT CAVOK 27/15 Q1012
cycle: 12

Station Type Date Time Source
LGKO TAF 2022/05/24 12:17 UTC NOAA

TAF LGKO 241100Z 2412/2512 31010KT 9999 FEW020

Example: see airport list